createdAt,value
2022-08-05T00:01:36.259Z,22.80
2022-08-05T00:04:18.873Z,22.80
2022-08-05T00:06:47.005Z,22.70
2022-08-05T00:09:15.889Z,22.70
2022-08-05T00:11:48.296Z,22.70
2022-08-05T00:14:17.297Z,22.70
2022-08-05T00:16:52.067Z,22.70
2022-08-05T00:19:24.970Z,22.70
2022-08-05T00:22:00.730Z,22.60
2022-08-05T00:24:30.671Z,22.60
2022-08-05T00:26:58.702Z,22.60
2022-08-05T00:29:25.973Z,22.60
2022-08-05T00:32:12.499Z,22.50
2022-08-05T00:35:04.788Z,22.50
2022-08-05T00:37:35.309Z,22.50
2022-08-05T00:40:17.893Z,22.50
2022-08-05T00:42:54.559Z,22.50
2022-08-05T00:45:28.114Z,22.50
2022-08-05T00:48:09.426Z,22.40
2022-08-05T00:50:37.210Z,22.40
2022-08-05T00:53:44.711Z,22.40
2022-08-05T00:55:50.488Z,22.40
2022-08-05T00:58:17.331Z,22.40
2022-08-05T01:00:46.211Z,22.40
2022-08-05T01:03:22.882Z,22.40
2022-08-05T01:05:51.242Z,22.30
2022-08-05T01:08:40.260Z,22.30
2022-08-05T01:11:22.118Z,22.30
2022-08-05T01:13:58.920Z,22.30
2022-08-05T01:16:30.996Z,22.20
2022-08-05T01:19:10.993Z,22.20
2022-08-05T01:21:55.528Z,22.20
2022-08-05T01:24:40.178Z,22.20
2022-08-05T01:27:27.091Z,22.20
2022-08-05T01:30:02.044Z,22.20
2022-08-05T01:32:31.791Z,22.20
2022-08-05T01:35:10.353Z,22.10
2022-08-05T01:37:44.290Z,22.10
2022-08-05T01:40:12.588Z,22.10
2022-08-05T01:42:40.999Z,22.10
2022-08-05T01:45:08.447Z,22.10
2022-08-05T01:47:39.186Z,22.10
2022-08-05T01:50:15.013Z,22.10
2022-08-05T01:52:43.812Z,22.10
2022-08-05T01:55:12.048Z,22.10
2022-08-05T01:58:10.808Z,22.10
2022-08-05T02:00:30.132Z,22.00
2022-08-05T02:02:59.946Z,22.00
2022-08-05T02:05:34.233Z,21.90
2022-08-05T02:08:01.839Z,21.90
2022-08-05T02:10:30.935Z,21.90
2022-08-05T02:13:03.112Z,21.90
2022-08-05T02:15:35.096Z,21.90
2022-08-05T02:18:30.646Z,21.90
2022-08-05T02:20:58.856Z,21.90
2022-08-05T02:23:28.145Z,21.80
2022-08-05T02:25:54.931Z,21.80
2022-08-05T02:28:28.874Z,21.80
2022-08-05T02:31:00.143Z,21.80
2022-08-05T02:33:38.496Z,21.80
2022-08-05T02:36:09.335Z,21.80
2022-08-05T02:38:37.391Z,21.80
2022-08-05T02:41:14.740Z,21.70
2022-08-05T02:44:05.999Z,21.70
2022-08-05T02:46:33.207Z,21.70
2022-08-05T02:49:01.358Z,21.70
2022-08-05T02:52:03.177Z,21.70
2022-08-05T02:54:34.998Z,21.60
2022-08-05T02:57:01.876Z,21.60
2022-08-05T02:59:29.651Z,21.60
2022-08-05T03:02:15.271Z,21.50
2022-08-05T03:04:42.700Z,21.50
2022-08-05T03:07:09.771Z,21.50
2022-08-05T03:09:57.294Z,21.50
2022-08-05T03:12:31.005Z,21.50
2022-08-05T03:14:57.717Z,21.50
2022-08-05T03:17:24.444Z,21.50
2022-08-05T03:19:51.692Z,21.40
2022-08-05T03:22:19.081Z,21.50
2022-08-05T03:25:02.324Z,21.50
2022-08-05T03:27:59.129Z,21.50
2022-08-05T03:30:33.330Z,21.50
2022-08-05T03:33:01.473Z,21.40
2022-08-05T03:35:29.024Z,21.40
2022-08-05T03:37:59.362Z,21.40
2022-08-05T03:40:31.944Z,21.40
2022-08-05T03:43:01.402Z,21.40
2022-08-05T03:45:58.083Z,21.40
2022-08-05T03:48:26.579Z,21.40
2022-08-05T03:52:38.328Z,21.40
2022-08-05T03:55:50.505Z,21.30
2022-08-05T03:56:44.299Z,21.40
2022-08-05T03:59:24.650Z,21.40
2022-08-05T04:01:52.176Z,21.40
2022-08-05T04:04:21.309Z,21.40
2022-08-05T04:06:51.180Z,21.40
2022-08-05T04:09:20.182Z,21.40
2022-08-05T04:11:52.988Z,21.30
2022-08-05T04:14:19.711Z,21.30
2022-08-05T04:16:58.134Z,21.30
2022-08-05T04:19:24.824Z,21.30
2022-08-05T04:22:10.163Z,21.30
2022-08-05T04:24:43.794Z,21.20
2022-08-05T04:27:12.136Z,21.30
2022-08-05T04:29:39.370Z,21.20
2022-08-05T04:32:06.584Z,21.20
2022-08-05T04:34:36.636Z,21.20
2022-08-05T04:37:09.386Z,21.20
2022-08-05T04:39:36.108Z,21.20
2022-08-05T04:42:03.663Z,21.20
2022-08-05T04:44:30.814Z,21.20
2022-08-05T04:47:09.046Z,21.20
2022-08-05T04:49:38.658Z,21.20
2022-08-05T04:52:23.562Z,21.20
2022-08-05T04:54:54.235Z,21.20
2022-08-05T04:57:28.788Z,21.20
2022-08-05T04:59:56.454Z,21.20
2022-08-05T05:02:37.314Z,21.10
2022-08-05T05:05:16.721Z,21.10
2022-08-05T05:08:02.112Z,21.10
2022-08-05T05:10:33.440Z,21.10
2022-08-05T05:13:00.571Z,21.10
2022-08-05T05:15:54.367Z,21.00
2022-08-05T05:18:31.065Z,21.00
2022-08-05T05:21:00.813Z,21.00
2022-08-05T05:23:38.789Z,21.00
2022-08-05T05:26:14.058Z,21.00
2022-08-05T05:28:42.750Z,21.00
2022-08-05T05:31:11.842Z,21.00
2022-08-05T05:33:58.793Z,21.00
2022-08-05T05:36:25.186Z,21.00
2022-08-05T05:38:57.006Z,21.00
2022-08-05T05:41:23.784Z,21.00
2022-08-05T05:43:57.685Z,20.90
2022-08-05T05:46:25.571Z,20.90
2022-08-05T05:48:52.210Z,20.90
2022-08-05T05:51:23.145Z,20.90
2022-08-05T05:53:57.671Z,20.90
2022-08-05T05:56:33.021Z,20.90
2022-08-05T05:59:03.420Z,21.00
2022-08-05T06:01:37.728Z,21.00
2022-08-05T06:04:11.425Z,21.10
2022-08-05T06:06:42.638Z,21.10
2022-08-05T06:09:17.388Z,21.10
2022-08-05T06:12:01.386Z,21.10
2022-08-05T06:14:29.223Z,21.20
2022-08-05T06:16:56.827Z,21.20
2022-08-05T06:19:32.920Z,21.20
2022-08-05T06:22:02.749Z,21.30
2022-08-05T06:24:30.101Z,21.30
2022-08-05T06:26:57.781Z,21.40
2022-08-05T06:29:46.736Z,21.40
2022-08-05T06:32:25.412Z,21.40
2022-08-05T06:34:56.384Z,21.50
2022-08-05T06:37:58.159Z,21.60
2022-08-05T06:40:11.780Z,21.70
2022-08-05T06:42:39.694Z,21.70
2022-08-05T06:45:08.582Z,21.80
2022-08-05T06:48:36.593Z,21.80
2022-08-05T06:50:22.742Z,21.80
2022-08-05T06:52:58.546Z,21.80
2022-08-05T06:55:36.174Z,21.80
2022-08-05T06:58:29.904Z,21.80
2022-08-05T07:00:50.231Z,21.90
2022-08-05T07:03:17.233Z,21.90
2022-08-05T07:05:44.187Z,21.90
2022-08-05T07:08:13.643Z,21.80
2022-08-05T07:10:52.900Z,21.80
2022-08-05T07:13:58.779Z,21.80
2022-08-05T07:18:00.160Z,21.70
2022-08-05T07:20:31.735Z,21.70
2022-08-05T07:22:29.171Z,21.60
2022-08-05T07:24:57.752Z,21.60
2022-08-05T07:27:27.612Z,21.60
2022-08-05T07:30:22.741Z,21.60
2022-08-05T07:32:57.511Z,21.60
2022-08-05T07:36:02.054Z,21.60
2022-08-05T07:38:12.157Z,21.70
2022-08-05T07:40:39.382Z,21.70
2022-08-05T07:43:20.186Z,21.70
2022-08-05T07:45:57.565Z,21.70
2022-08-05T07:49:01.422Z,21.70
2022-08-05T07:51:23.695Z,21.70
2022-08-05T07:53:58.577Z,21.70
2022-08-05T07:57:01.305Z,21.70
2022-08-05T07:59:15.212Z,21.80
2022-08-05T08:01:52.495Z,21.80
2022-08-05T08:04:37.272Z,21.80
2022-08-05T08:07:05.454Z,21.90
2022-08-05T08:09:34.204Z,21.90
2022-08-05T08:12:09.164Z,21.80
2022-08-05T08:14:41.713Z,21.80
2022-08-05T08:17:16.055Z,21.80
2022-08-05T08:20:21.697Z,21.90
2022-08-05T08:22:35.167Z,21.90
2022-08-05T08:25:16.513Z,21.90
2022-08-05T08:27:47.398Z,21.90
2022-08-05T08:30:19.015Z,21.90
2022-08-05T08:32:47.989Z,22.00
2022-08-05T08:35:17.904Z,22.00
2022-08-05T08:37:51.762Z,22.00
2022-08-05T08:40:22.317Z,22.00
2022-08-05T08:42:52.669Z,22.10
2022-08-05T08:45:27.013Z,22.10
2022-08-05T08:48:07.544Z,22.00
2022-08-05T08:51:03.994Z,22.00
2022-08-05T08:53:35.250Z,22.00
2022-08-05T08:56:05.819Z,21.90
2022-08-05T08:58:43.332Z,21.90
2022-08-05T09:01:16.602Z,21.90
2022-08-05T09:03:46.127Z,21.90
2022-08-05T09:06:17.222Z,21.90
2022-08-05T09:08:46.724Z,22.00
2022-08-05T09:11:14.805Z,22.00
2022-08-05T09:14:00.970Z,22.00
2022-08-05T09:16:29.943Z,22.00
2022-08-05T09:18:59.437Z,22.10
2022-08-05T09:22:17.512Z,22.10
2022-08-05T09:24:15.528Z,22.20
2022-08-05T09:26:43.682Z,22.20
2022-08-05T09:29:11.045Z,22.20
2022-08-05T09:32:41.484Z,22.20
2022-08-05T09:34:48.948Z,22.30
2022-08-05T09:37:17.007Z,22.30
2022-08-05T09:39:45.690Z,22.40
2022-08-05T09:42:24.343Z,22.40
2022-08-05T09:44:56.483Z,22.50
2022-08-05T09:47:25.269Z,22.50
2022-08-05T09:50:02.523Z,22.60
2022-08-05T09:52:29.443Z,22.60
2022-08-05T09:55:55.175Z,22.60
2022-08-05T09:57:58.662Z,22.60
2022-08-05T10:00:26.789Z,22.60
2022-08-05T10:02:54.896Z,22.50
2022-08-05T10:05:26.683Z,22.50
2022-08-05T10:08:36.706Z,22.60
2022-08-05T10:10:53.984Z,22.50
2022-08-05T10:13:47.352Z,22.50
2022-08-05T10:16:31.025Z,22.50
2022-08-05T10:18:59.290Z,22.60
2022-08-05T10:21:27.610Z,22.60
2022-08-05T10:24:06.248Z,22.60
2022-08-05T10:26:51.654Z,22.70
2022-08-05T10:29:23.965Z,22.70
2022-08-05T10:32:51.792Z,22.80
2022-08-05T10:34:58.178Z,22.80
2022-08-05T10:37:40.093Z,22.90
2022-08-05T10:40:30.161Z,22.90
2022-08-05T10:43:07.254Z,22.90
2022-08-05T10:45:41.667Z,23.00
2022-08-05T10:48:30.600Z,23.00
2022-08-05T10:50:58.679Z,22.90
2022-08-05T10:53:38.220Z,22.90
2022-08-05T10:56:14.702Z,22.90
2022-08-05T10:58:54.514Z,23.00
2022-08-05T11:01:54.200Z,23.00
2022-08-05T11:04:23.531Z,23.00
2022-08-05T11:07:04.855Z,23.00
2022-08-05T11:09:46.444Z,23.00
2022-08-05T11:12:26.460Z,22.90
2022-08-05T11:15:19.761Z,22.90
2022-08-05T11:18:00.118Z,22.90
2022-08-05T11:20:47.387Z,22.90
2022-08-05T11:24:04.589Z,22.90
2022-08-05T11:26:29.201Z,23.00
2022-08-05T11:29:06.638Z,23.10
2022-08-05T11:31:58.294Z,23.10
2022-08-05T11:34:38.359Z,23.10
2022-08-05T11:38:14.307Z,23.10
2022-08-05T11:40:00.390Z,23.10
2022-08-05T11:42:31.444Z,23.10
2022-08-05T11:45:02.533Z,23.10
2022-08-05T11:47:49.668Z,23.10
2022-08-05T11:50:17.365Z,23.10
2022-08-05T11:52:48.464Z,23.10
2022-08-05T11:55:16.310Z,23.10
2022-08-05T11:58:09.556Z,23.10
2022-08-05T12:00:38.061Z,23.10
2022-08-05T12:03:15.576Z,23.20
2022-08-05T12:05:50.951Z,23.20
2022-08-05T12:08:18.579Z,23.30
2022-08-05T12:10:46.576Z,23.30
2022-08-05T12:13:18.527Z,23.20
2022-08-05T12:15:55.899Z,23.20
2022-08-05T12:18:52.356Z,23.30
2022-08-05T12:21:21.372Z,23.30
2022-08-05T12:23:53.228Z,23.30
2022-08-05T12:26:19.986Z,23.30
2022-08-05T12:28:46.633Z,23.40
2022-08-05T12:31:32.697Z,23.40
2022-08-05T12:34:04.626Z,23.40
2022-08-05T12:36:31.491Z,23.50
2022-08-05T12:38:58.514Z,23.50
2022-08-05T12:41:34.577Z,23.40
2022-08-05T12:44:05.909Z,23.40
2022-08-05T12:46:39.686Z,23.40
2022-08-05T12:49:13.600Z,23.40
2022-08-05T12:52:10.353Z,23.40
2022-08-05T12:54:31.529Z,23.50
2022-08-05T12:56:59.390Z,23.50
2022-08-05T13:00:08.430Z,23.60
2022-08-05T13:02:22.693Z,23.60
2022-08-05T13:05:00.742Z,23.60
2022-08-05T13:07:55.778Z,23.70
2022-08-05T13:10:19.440Z,23.70
2022-08-05T13:12:57.193Z,23.70
2022-08-05T13:15:35.990Z,23.70
2022-08-05T13:18:08.503Z,23.80
2022-08-05T13:20:35.632Z,23.80
2022-08-05T13:23:07.584Z,23.90
2022-08-05T13:25:52.207Z,24.10
2022-08-05T13:28:22.036Z,24.10
2022-08-05T13:30:48.951Z,24.10
2022-08-05T13:34:22.727Z,24.20
2022-08-05T13:36:06.374Z,24.20
2022-08-05T13:38:38.536Z,24.20
2022-08-05T13:41:09.582Z,24.20
2022-08-05T13:43:45.792Z,24.30
2022-08-05T13:49:12.589Z,24.30
2022-08-05T13:51:41.644Z,24.20
2022-08-05T13:54:15.177Z,24.30
2022-08-05T13:56:45.028Z,24.20
2022-08-05T13:59:20.212Z,24.20
2022-08-05T14:01:57.469Z,24.20
2022-08-05T14:04:49.791Z,24.10
2022-08-05T14:07:26.186Z,24.10
2022-08-05T14:10:09.191Z,24.20
2022-08-05T14:12:36.511Z,24.40
2022-08-05T14:15:05.828Z,24.70
2022-08-05T14:17:50.130Z,24.90
2022-08-05T14:20:18.330Z,25.10
2022-08-05T14:22:50.320Z,25.40
2022-08-05T14:25:19.204Z,25.50
2022-08-05T14:27:49.479Z,25.50
2022-08-05T14:30:20.023Z,25.40
2022-08-05T14:32:47.566Z,25.30
2022-08-05T14:35:14.190Z,25.10
2022-08-05T14:37:48.018Z,25.10
2022-08-05T14:40:16.725Z,25.00
2022-08-05T14:42:43.883Z,24.90
2022-08-05T14:45:13.149Z,24.80
2022-08-05T14:48:02.890Z,24.70
2022-08-05T14:50:29.498Z,24.70
2022-08-05T14:53:00.248Z,24.70
2022-08-05T14:55:28.617Z,24.70
2022-08-05T14:58:10.864Z,24.80
2022-08-05T15:00:38.434Z,24.70
2022-08-05T15:03:09.592Z,24.70
2022-08-05T15:06:08.410Z,24.50
2022-08-05T15:08:58.574Z,24.50
2022-08-05T15:11:10.167Z,24.50
2022-08-05T15:13:46.176Z,24.40
2022-08-05T15:16:13.383Z,24.20
2022-08-05T15:18:40.258Z,24.20
2022-08-05T15:21:08.684Z,24.20
2022-08-05T15:23:35.341Z,24.40
2022-08-05T15:26:04.735Z,24.40
2022-08-05T15:28:33.879Z,24.40
2022-08-05T15:31:00.509Z,24.30
2022-08-05T15:33:56.706Z,24.20
2022-08-05T15:36:24.111Z,24.30
2022-08-05T15:40:41.081Z,24.30
2022-08-05T15:41:55.940Z,24.20
2022-08-05T15:44:25.694Z,24.10
2022-08-05T15:46:54.503Z,24.00
2022-08-05T15:49:40.868Z,23.90
2022-08-05T15:52:13.881Z,23.80
2022-08-05T15:54:47.154Z,24.00
2022-08-05T15:57:15.967Z,25.00
2022-08-05T15:59:43.021Z,26.20
2022-08-05T16:02:14.522Z,27.50
2022-08-05T16:04:46.173Z,27.60
2022-08-05T16:07:13.357Z,27.20
2022-08-05T16:09:41.530Z,27.10
2022-08-05T16:12:09.155Z,27.70
2022-08-05T16:14:38.177Z,27.20
2022-08-05T16:17:04.915Z,26.60
2022-08-05T16:20:02.932Z,26.50
2022-08-05T16:22:27.498Z,27.70
2022-08-05T16:25:00.831Z,29.00
2022-08-05T16:28:01.002Z,30.00
2022-08-05T16:30:25.760Z,30.40
2022-08-05T16:32:53.579Z,29.60
2022-08-05T16:35:28.539Z,29.10
2022-08-05T16:38:24.166Z,29.60
2022-08-05T16:40:55.506Z,30.20
2022-08-05T16:43:27.671Z,30.40
2022-08-05T16:46:06.200Z,30.20
2022-08-05T16:48:36.668Z,30.10
2022-08-05T16:51:08.649Z,29.30
2022-08-05T16:54:05.063Z,28.30
2022-08-05T16:56:27.486Z,27.50
2022-08-05T16:58:54.141Z,26.90
2022-08-05T17:01:21.107Z,26.50
2022-08-05T17:03:51.698Z,26.20
2022-08-05T17:06:18.379Z,26.10
2022-08-05T17:08:52.083Z,25.90
2022-08-05T17:11:20.333Z,25.70
2022-08-05T17:13:50.276Z,25.40
2022-08-05T17:16:33.702Z,25.00
2022-08-05T17:19:07.794Z,24.70
2022-08-05T17:21:37.340Z,24.50
2022-08-05T17:24:14.401Z,24.30
2022-08-05T17:26:52.453Z,24.20
2022-08-05T17:29:22.563Z,24.10
2022-08-05T17:31:59.677Z,24.00
2022-08-05T17:34:29.903Z,23.90
2022-08-05T17:36:58.985Z,23.80
2022-08-05T17:39:34.291Z,23.70
2022-08-05T17:42:17.542Z,23.70
2022-08-05T17:44:50.366Z,23.50
2022-08-05T17:47:22.997Z,23.50
2022-08-05T17:50:00.158Z,23.50
2022-08-05T17:52:34.510Z,23.40
2022-08-05T17:55:19.638Z,23.30
2022-08-05T17:57:50.324Z,23.20
2022-08-05T18:00:17.382Z,23.10
2022-08-05T18:02:47.162Z,23.00
2022-08-05T18:05:17.458Z,22.90
2022-08-05T18:07:44.728Z,22.90
2022-08-05T18:10:14.089Z,22.80
2022-08-05T18:12:48.533Z,22.80
2022-08-05T18:15:17.960Z,22.80
2022-08-05T18:17:59.067Z,22.70
2022-08-05T18:20:31.500Z,22.60
2022-08-05T18:23:09.416Z,22.60
2022-08-05T18:25:39.590Z,22.50
2022-08-05T18:28:16.484Z,22.40
2022-08-05T18:30:51.494Z,22.40
2022-08-05T18:33:22.541Z,22.30
2022-08-05T18:36:03.363Z,22.20
2022-08-05T18:38:34.150Z,22.20
2022-08-05T18:41:57.572Z,22.10
2022-08-05T18:43:50.355Z,22.00
2022-08-05T18:46:19.733Z,21.90
2022-08-05T18:48:48.218Z,21.90
2022-08-05T18:52:04.445Z,21.80
2022-08-05T18:54:30.962Z,21.70
2022-08-05T18:57:01.731Z,21.60
2022-08-05T18:59:42.694Z,21.60
2022-08-05T19:02:26.778Z,21.60
2022-08-05T19:05:02.210Z,21.50
2022-08-05T19:07:45.578Z,21.40
2022-08-05T19:10:17.417Z,21.30
2022-08-05T19:12:46.160Z,21.30
2022-08-05T19:15:58.015Z,21.30
2022-08-05T19:18:09.664Z,21.20
2022-08-05T19:20:41.288Z,21.20
2022-08-05T19:24:04.208Z,21.10
2022-08-05T19:26:01.066Z,21.00
2022-08-05T19:28:28.914Z,21.00
2022-08-05T19:30:55.903Z,20.90
2022-08-05T19:33:35.974Z,20.90
2022-08-05T19:36:06.999Z,20.90
2022-08-05T19:38:35.856Z,20.80
2022-08-05T19:41:07.237Z,20.80
2022-08-05T19:44:05.346Z,20.80
2022-08-05T19:46:30.465Z,20.70
2022-08-05T19:49:04.187Z,20.60
2022-08-05T19:52:04.498Z,20.60
2022-08-05T19:54:31.484Z,20.60
2022-08-05T19:56:59.424Z,20.60
2022-08-05T19:59:55.053Z,20.60
2022-08-05T20:02:14.247Z,20.60
2022-08-05T20:04:45.812Z,20.50
2022-08-05T20:07:13.719Z,20.50
2022-08-05T20:09:54.131Z,20.40
2022-08-05T20:12:22.719Z,20.30
2022-08-05T20:14:53.015Z,20.30
2022-08-05T20:17:23.168Z,20.30
2022-08-05T20:19:57.290Z,20.20
2022-08-05T20:22:26.627Z,20.20
2022-08-05T20:24:57.406Z,20.20
2022-08-05T20:27:27.312Z,20.20
2022-08-05T20:30:11.375Z,20.20
2022-08-05T20:32:45.208Z,20.10
2022-08-05T20:35:12.234Z,20.10
2022-08-05T20:38:05.568Z,20.10
2022-08-05T20:40:26.631Z,20.00
2022-08-05T20:42:54.380Z,19.90
2022-08-05T20:45:47.637Z,19.90
2022-08-05T20:48:13.309Z,19.90
2022-08-05T20:50:46.788Z,19.80
2022-08-05T20:53:15.972Z,19.80
2022-08-05T20:56:08.380Z,19.80
2022-08-05T20:58:36.139Z,19.70
2022-08-05T21:01:04.172Z,19.70
2022-08-05T21:03:34.550Z,19.70
2022-08-05T21:06:01.756Z,19.60
2022-08-05T21:08:42.494Z,19.60
2022-08-05T21:11:12.126Z,19.60
2022-08-05T21:13:47.909Z,19.50
2022-08-05T21:16:29.419Z,19.50
2022-08-05T21:18:59.917Z,19.40
2022-08-05T21:21:43.689Z,19.40
2022-08-05T21:24:15.374Z,19.30
2022-08-05T21:26:45.952Z,19.30
2022-08-05T21:29:17.284Z,19.20
2022-08-05T21:31:43.920Z,19.20
2022-08-05T21:34:11.246Z,19.20
2022-08-05T21:36:38.595Z,19.20
2022-08-05T21:39:05.352Z,19.20
2022-08-05T21:41:37.510Z,19.20
2022-08-05T21:44:05.024Z,19.20
2022-08-05T21:46:34.334Z,19.20
2022-08-05T21:49:02.187Z,19.20
2022-08-05T21:52:16.257Z,19.10
2022-08-05T21:54:18.052Z,19.10
2022-08-05T21:57:15.444Z,19.00
2022-08-05T22:00:01.914Z,18.90
2022-08-05T22:02:27.975Z,18.80
2022-08-05T22:04:58.142Z,18.80
2022-08-05T22:07:39.717Z,18.70
2022-08-05T22:10:12.694Z,18.60
2022-08-05T22:12:40.286Z,18.50
2022-08-05T22:15:16.573Z,18.50
2022-08-05T22:17:56.387Z,18.40
2022-08-05T22:20:26.655Z,18.40
2022-08-05T22:23:17.113Z,18.40
2022-08-05T22:26:10.502Z,18.40
2022-08-05T22:28:38.684Z,18.40
2022-08-05T22:31:05.995Z,18.40
2022-08-05T22:33:58.465Z,18.40
2022-08-05T22:36:24.140Z,18.40
2022-08-05T22:38:51.467Z,18.40
2022-08-05T22:42:05.033Z,18.30
2022-08-05T22:44:06.029Z,18.30
2022-08-05T22:46:32.679Z,18.20
2022-08-05T22:48:59.417Z,18.10
2022-08-05T22:52:03.095Z,18.00
2022-08-05T22:54:12.753Z,18.00
2022-08-05T22:56:40.630Z,17.90
2022-08-05T22:59:45.372Z,17.80
2022-08-05T23:02:05.766Z,17.80
2022-08-05T23:04:34.429Z,17.80
2022-08-05T23:07:02.206Z,17.70
2022-08-05T23:09:53.482Z,17.70
2022-08-05T23:12:17.756Z,17.70
2022-08-05T23:14:44.637Z,17.60
2022-08-05T23:17:24.388Z,17.60
2022-08-05T23:20:00.208Z,17.60
2022-08-05T23:22:27.923Z,17.50
2022-08-05T23:24:54.673Z,17.50
2022-08-05T23:27:21.378Z,17.50
2022-08-05T23:29:50.600Z,17.40
2022-08-05T23:32:17.660Z,17.40
2022-08-05T23:34:49.693Z,17.40
2022-08-05T23:37:17.669Z,17.30
2022-08-05T23:39:53.798Z,17.30
2022-08-05T23:42:23.377Z,17.30
2022-08-05T23:44:55.651Z,17.30
2022-08-05T23:47:22.310Z,17.20
2022-08-05T23:49:52.010Z,17.10
2022-08-05T23:52:32.561Z,17.10
2022-08-05T23:55:07.232Z,17.10
2022-08-05T23:57:36.278Z,17.00
